Terminal Aerodrome Forecast
Issued by NWS Houston/Galveston, TX

Home | Current Version | Previous Version | Text Only | Print | Product List | Glossary On
Versions: 1 2 3 4 5 6 7 8 9 10 11 12 13 14 15 16 17 18 19 20 21 22 23 24 25 26 27 28 29 30 31 32 33 34 35 36 37 38 39 40 41 42 43 44 45 46
000
FTUS44 KHGX 181740
TAFGLS
TAF
KGLS 181740Z 1818/1918 11008KT 3SM BR OVC006
      TEMPO 1818/1822 1/4SM FG OVC002
     FM182200 12010KT 5SM BR SCT015 BKN035
     FM190100 15009KT 2SM BR SCT004 OVC008
     FM190500 16014KT 1SM BR OVC005
     FM191500 16011KT 2SM BR SCT020=

USA.gov is the U.S. government's official web portal to all federal, state and local government web resources and services.